createdAt,value
2022-08-26T00:00:26.043Z,99109.77
2022-08-26T00:01:09.127Z,99112.41
2022-08-26T00:01:44.058Z,99108.34
2022-08-26T00:02:19.384Z,99109.43
2022-08-26T00:02:54.600Z,99108.39
2022-08-26T00:03:27.777Z,99107.27
2022-08-26T00:04:01.571Z,99111.64
2022-08-26T00:04:34.771Z,99107.30
2022-08-26T00:05:08.228Z,99110.85
2022-08-26T00:05:43.595Z,99107.34
2022-08-26T00:06:17.003Z,99109.08
2022-08-26T00:06:56.423Z,99110.08
2022-08-26T00:07:29.816Z,99111.28
2022-08-26T00:08:03.625Z,99111.25
2022-08-26T00:08:36.739Z,99112.98
2022-08-26T00:09:11.458Z,99110.95
2022-08-26T00:09:47.065Z,99109.41
2022-08-26T00:10:21.522Z,99110.52
2022-08-26T00:10:59.853Z,99114.23
2022-08-26T00:11:33.650Z,99111.87
2022-08-26T00:12:08.143Z,99110.00
2022-08-26T00:12:42.559Z,99109.92
2022-08-26T00:13:16.805Z,99108.80
2022-08-26T00:13:52.806Z,99107.23
2022-08-26T00:14:30.974Z,99107.88
2022-08-26T00:15:08.755Z,99106.34
2022-08-26T00:15:42.530Z,99108.80
2022-08-26T00:16:15.815Z,99106.86
2022-08-26T00:16:49.171Z,99110.52
2022-08-26T00:17:22.335Z,99109.56
2022-08-26T00:17:56.869Z,99106.35
2022-08-26T00:18:30.935Z,99104.95
2022-08-26T00:19:11.830Z,99103.56
2022-08-26T00:19:46.249Z,99104.09
2022-08-26T00:20:25.446Z,99105.27
2022-08-26T00:21:00.396Z,99101.47
2022-08-26T00:21:40.027Z,99101.71
2022-08-26T00:22:14.380Z,99102.73
2022-08-26T00:22:55.356Z,99101.89
2022-08-26T00:23:28.859Z,99101.19
2022-08-26T00:24:02.523Z,99100.16
2022-08-26T00:24:35.819Z,99100.80
2022-08-26T00:25:10.499Z,99101.29
2022-08-26T00:25:44.464Z,99097.20
2022-08-26T00:26:18.099Z,99097.77
2022-08-26T00:26:51.850Z,99096.92
2022-08-26T00:27:25.250Z,99098.04
2022-08-26T00:27:58.965Z,99097.73
2022-08-26T00:28:33.313Z,99095.95
2022-08-26T00:29:07.102Z,99098.45
2022-08-26T00:29:40.206Z,99097.20
2022-08-26T00:30:18.199Z,99095.98
2022-08-26T00:30:56.067Z,99096.29
2022-08-26T00:31:31.127Z,99092.32
2022-08-26T00:32:04.940Z,99095.78
2022-08-26T00:32:38.092Z,99093.30
2022-08-26T00:33:12.711Z,99096.70
2022-08-26T00:33:45.921Z,99095.57
2022-08-26T00:34:19.283Z,99097.56
2022-08-26T00:34:53.105Z,99098.85
2022-08-26T00:35:28.049Z,99095.59
2022-08-26T00:36:01.903Z,99098.44
2022-08-26T00:36:36.007Z,99098.52
2022-08-26T00:37:13.405Z,99096.48
2022-08-26T00:37:49.530Z,99097.14
2022-08-26T00:38:23.661Z,99097.92
2022-08-26T00:38:58.224Z,99097.74
2022-08-26T00:39:32.286Z,99099.77
2022-08-26T00:40:09.655Z,99099.65
2022-08-26T00:40:48.099Z,99098.64
2022-08-26T00:41:21.524Z,99099.70
2022-08-26T00:41:54.785Z,99099.55
2022-08-26T00:42:27.996Z,99099.55
2022-08-26T00:43:02.181Z,99098.64
2022-08-26T00:43:46.094Z,99098.32
2022-08-26T00:44:21.603Z,99100.41
2022-08-26T00:44:54.759Z,99099.36
2022-08-26T00:45:34.783Z,99099.33
2022-08-26T00:46:14.785Z,99103.39
2022-08-26T00:46:58.513Z,99102.51
2022-08-26T00:47:39.011Z,99100.05
2022-08-26T00:48:15.513Z,99106.45
2022-08-26T00:48:52.543Z,99100.19
2022-08-26T00:49:39.873Z,99110.48
2022-08-26T00:50:18.811Z,99103.71
2022-08-26T00:51:09.322Z,99102.73
2022-08-26T00:51:49.740Z,99102.45
2022-08-26T00:52:24.624Z,99103.06
2022-08-26T00:53:00.529Z,99101.86
2022-08-26T00:53:39.615Z,99101.83
2022-08-26T00:54:17.636Z,99105.59
2022-08-26T00:55:17.359Z,99103.81
2022-08-26T00:56:05.447Z,99103.04
2022-08-26T00:56:50.707Z,99103.38
2022-08-26T00:57:24.294Z,99102.55
2022-08-26T00:57:57.429Z,99104.72
2022-08-26T00:58:33.144Z,99104.47
2022-08-26T00:59:11.158Z,99104.63
2022-08-26T00:59:57.000Z,99103.64
2022-08-26T01:00:33.260Z,99107.04
2022-08-26T01:01:06.534Z,99103.89
2022-08-26T01:01:42.399Z,99107.73
2022-08-26T01:02:20.753Z,99105.25
2022-08-26T01:02:56.329Z,99104.41
2022-08-26T01:03:33.907Z,99106.48
2022-08-26T01:04:07.390Z,99105.80
2022-08-26T01:04:42.252Z,99103.59
2022-08-26T01:05:19.128Z,99106.14
2022-08-26T01:05:57.304Z,99108.83
2022-08-26T01:06:31.589Z,99111.13
2022-08-26T01:07:05.546Z,99111.17
2022-08-26T01:07:40.100Z,99107.16
2022-08-26T01:08:13.236Z,99111.05
2022-08-26T01:08:46.411Z,99111.53
2022-08-26T01:09:20.977Z,99113.12
2022-08-26T01:09:54.862Z,99114.35
2022-08-26T01:10:31.538Z,99113.17
2022-08-26T01:11:05.805Z,99114.97
2022-08-26T01:11:41.300Z,99114.69
2022-08-26T01:12:15.112Z,99118.61
2022-08-26T01:12:58.345Z,99119.48
2022-08-26T01:13:32.624Z,99117.83
2022-08-26T01:14:09.623Z,99119.89
2022-08-26T01:14:42.747Z,99122.02
2022-08-26T01:15:24.309Z,99121.08
2022-08-26T01:16:01.111Z,99121.03
2022-08-26T01:16:36.423Z,99120.34
2022-08-26T01:17:09.683Z,99120.73
2022-08-26T01:17:43.864Z,99118.16
2022-08-26T01:18:18.603Z,99119.54
2022-08-26T01:18:55.747Z,99119.58
2022-08-26T01:19:33.290Z,99117.17
2022-08-26T01:20:26.166Z,99121.59
2022-08-26T01:21:09.852Z,99119.52
2022-08-26T01:21:54.929Z,99117.48
2022-08-26T01:22:50.606Z,99116.58
2022-08-26T01:23:31.577Z,99117.54
2022-08-26T01:24:06.035Z,99119.05
2022-08-26T01:24:41.819Z,99117.42
2022-08-26T01:25:16.032Z,99117.54
2022-08-26T01:25:55.177Z,99119.22
2022-08-26T01:26:40.729Z,99119.02
2022-08-26T01:27:18.243Z,99122.86
2022-08-26T01:27:52.835Z,99118.49
2022-08-26T01:28:30.434Z,99122.41
2022-08-26T01:29:07.155Z,99124.00
2022-08-26T01:29:44.236Z,99123.05
2022-08-26T01:30:18.053Z,99122.70
2022-08-26T01:30:53.748Z,99121.02
2022-08-26T01:31:32.880Z,99124.86
2022-08-26T01:32:09.061Z,99122.36
2022-08-26T01:32:43.124Z,99124.84
2022-08-26T01:33:19.662Z,99129.77
2022-08-26T01:34:03.572Z,99126.38
2022-08-26T01:34:39.488Z,99126.61
2022-08-26T01:35:12.956Z,99125.48
2022-08-26T01:35:46.407Z,99126.89
2022-08-26T01:36:23.605Z,99128.10
2022-08-26T01:37:18.686Z,99127.11
2022-08-26T01:37:55.197Z,99125.77
2022-08-26T01:38:28.387Z,99126.70
2022-08-26T01:39:06.010Z,99127.85
2022-08-26T01:39:41.071Z,99128.30
2022-08-26T01:40:23.623Z,99129.65
2022-08-26T01:40:56.901Z,99129.14
2022-08-26T01:41:31.737Z,99129.14
2022-08-26T01:42:10.430Z,99131.13
2022-08-26T01:42:44.578Z,99128.23
2022-08-26T01:43:27.689Z,99128.06
2022-08-26T01:44:02.291Z,99124.81
2022-08-26T01:44:51.682Z,99126.60
2022-08-26T01:45:28.687Z,99124.63
2022-08-26T01:46:02.861Z,99124.38
2022-08-26T01:46:37.680Z,99120.92
2022-08-26T01:47:13.823Z,99120.84
2022-08-26T01:47:56.804Z,99122.64
2022-08-26T01:48:32.936Z,99122.53
2022-08-26T01:49:08.714Z,99124.71
2022-08-26T01:49:45.893Z,99122.91
2022-08-26T01:50:27.891Z,99123.35
2022-08-26T01:51:05.743Z,99123.20
2022-08-26T01:51:41.276Z,99124.05
2022-08-26T01:52:22.217Z,99122.42
2022-08-26T01:53:00.632Z,99118.83
2022-08-26T01:53:33.882Z,99118.92
2022-08-26T01:54:12.046Z,99121.20
2022-08-26T01:54:50.509Z,99119.82
2022-08-26T01:55:32.130Z,99118.82
2022-08-26T01:56:08.817Z,99119.36
2022-08-26T01:56:42.096Z,99119.23
2022-08-26T01:57:17.729Z,99117.59
2022-08-26T01:57:56.283Z,99119.86
2022-08-26T01:58:42.802Z,99118.98
2022-08-26T01:59:19.407Z,99117.15
2022-08-26T01:59:55.892Z,99114.55
2022-08-26T02:00:29.809Z,99118.55
2022-08-26T02:01:03.928Z,99116.65
2022-08-26T02:01:37.914Z,99117.95
2022-08-26T02:02:11.127Z,99118.33
2022-08-26T02:02:48.366Z,99119.18
2022-08-26T02:03:22.843Z,99119.19
2022-08-26T02:04:03.827Z,99120.41
2022-08-26T02:04:44.088Z,99122.79
2022-08-26T02:05:20.991Z,99121.43
2022-08-26T02:05:58.676Z,99123.46
2022-08-26T02:06:32.698Z,99123.29
2022-08-26T02:07:09.927Z,99119.46
2022-08-26T02:07:44.475Z,99123.66
2022-08-26T02:08:18.977Z,99122.70
2022-08-26T02:09:02.494Z,99121.96
2022-08-26T02:09:41.196Z,99126.19
2022-08-26T02:10:15.906Z,99124.41
2022-08-26T02:10:50.047Z,99124.63
2022-08-26T02:11:28.257Z,99127.16
2022-08-26T02:12:02.658Z,99129.40
2022-08-26T02:13:48.155Z,99126.14
2022-08-26T02:14:26.853Z,99129.74
2022-08-26T02:15:05.778Z,99129.20
2022-08-26T02:15:43.396Z,99129.70
2022-08-26T02:16:20.038Z,99127.90
2022-08-26T02:16:55.434Z,99127.53
2022-08-26T02:17:34.086Z,99122.61
2022-08-26T02:18:08.773Z,99121.11
2022-08-26T02:18:49.386Z,99123.31
2022-08-26T02:19:35.595Z,99121.07
2022-08-26T02:20:13.415Z,99118.75
2022-08-26T02:20:51.581Z,99115.71
2022-08-26T02:21:25.157Z,99115.67
2022-08-26T02:22:01.653Z,99116.29
2022-08-26T02:22:36.622Z,99114.95
2022-08-26T02:23:09.887Z,99115.48
2022-08-26T02:23:43.222Z,99115.70
2022-08-26T02:24:22.534Z,99114.69
2022-08-26T02:25:10.362Z,99116.41
2022-08-26T02:25:52.459Z,99118.15
2022-08-26T02:26:26.904Z,99116.27
2022-08-26T02:27:01.697Z,99117.99
2022-08-26T02:27:35.904Z,99119.63
2022-08-26T02:28:11.222Z,99120.98
2022-08-26T02:28:56.705Z,99119.22
2022-08-26T02:29:35.817Z,99116.33
2022-08-26T02:30:24.873Z,99119.19
2022-08-26T02:30:59.515Z,99118.84
2022-08-26T02:31:35.166Z,99117.67
2022-08-26T02:32:09.085Z,99116.45
2022-08-26T02:32:42.668Z,99116.81
2022-08-26T02:33:15.854Z,99116.02
2022-08-26T02:33:49.367Z,99118.71
2022-08-26T02:34:28.219Z,99112.55
2022-08-26T02:35:05.530Z,99111.21
2022-08-26T02:35:39.849Z,99114.64
2022-08-26T02:36:13.517Z,99114.08
2022-08-26T02:36:49.801Z,99113.27
2022-08-26T02:37:28.513Z,99111.62
2022-08-26T02:38:02.709Z,99114.47
2022-08-26T02:38:43.554Z,99114.13
2022-08-26T02:39:22.300Z,99111.89
2022-08-26T02:39:55.817Z,99114.31
2022-08-26T02:40:34.146Z,99117.30
2022-08-26T02:41:08.923Z,99121.64
2022-08-26T02:41:45.493Z,99120.57
2022-08-26T02:42:18.667Z,99121.74
2022-08-26T02:42:53.058Z,99122.23
2022-08-26T02:43:31.413Z,99122.04
2022-08-26T02:44:07.422Z,99120.77
2022-08-26T02:44:40.654Z,99120.67
2022-08-26T02:45:13.844Z,99120.23
2022-08-26T02:45:49.963Z,99118.48
2022-08-26T02:46:28.054Z,99119.83
2022-08-26T02:47:04.441Z,99116.85
2022-08-26T02:47:38.605Z,99116.90
2022-08-26T02:48:17.271Z,99117.48
2022-08-26T02:48:52.224Z,99116.90
2022-08-26T02:49:27.956Z,99116.41
2022-08-26T02:50:01.217Z,99115.67
2022-08-26T02:50:35.218Z,99115.79
2022-08-26T02:51:08.421Z,99116.08
2022-08-26T02:51:41.449Z,99116.98
2022-08-26T02:52:16.433Z,99118.56
2022-08-26T02:52:49.609Z,99113.88
2022-08-26T02:53:25.438Z,99110.45
2022-08-26T02:53:58.788Z,99114.17
2022-08-26T02:54:32.554Z,99115.69
2022-08-26T02:55:07.954Z,99114.71
2022-08-26T02:55:42.012Z,99113.11
2022-08-26T02:56:15.250Z,99113.73
2022-08-26T02:56:49.188Z,99110.64
2022-08-26T02:57:22.340Z,99114.48
2022-08-26T02:57:56.037Z,99117.13
2022-08-26T02:58:29.117Z,99119.91
2022-08-26T02:59:02.069Z,99114.45
2022-08-26T02:59:36.271Z,99117.43
2022-08-26T03:00:12.868Z,99114.89
2022-08-26T03:00:53.093Z,99114.25
2022-08-26T03:01:30.876Z,99112.29
2022-08-26T03:02:04.324Z,99111.98
2022-08-26T03:02:37.737Z,99111.81
2022-08-26T03:03:10.901Z,99112.64
2022-08-26T03:03:43.909Z,99110.58
2022-08-26T03:04:17.357Z,99109.51
2022-08-26T03:04:57.974Z,99112.02
2022-08-26T03:05:35.597Z,99108.58
2022-08-26T03:06:10.698Z,99108.75
2022-08-26T03:06:44.317Z,99107.02
2022-08-26T03:07:26.541Z,99107.52
2022-08-26T03:08:01.050Z,99105.57
2022-08-26T03:08:35.110Z,99110.67
2022-08-26T03:09:08.650Z,99106.90
2022-08-26T03:09:42.040Z,99108.91
2022-08-26T03:10:16.611Z,99109.05
2022-08-26T03:10:50.007Z,99110.81
2022-08-26T03:11:23.983Z,99108.23
2022-08-26T03:11:59.104Z,99108.52
2022-08-26T03:12:32.734Z,99105.57
2022-08-26T03:13:06.037Z,99108.84
2022-08-26T03:13:40.397Z,99109.33
2022-08-26T03:14:13.622Z,99106.23
2022-08-26T03:14:48.572Z,99108.52
2022-08-26T03:15:21.840Z,99104.80
2022-08-26T03:15:55.436Z,99103.38
2022-08-26T03:16:33.272Z,99101.83
2022-08-26T03:17:06.439Z,99102.06
2022-08-26T03:17:44.070Z,99102.06
2022-08-26T03:18:17.158Z,99102.54
2022-08-26T03:18:52.355Z,99101.96
2022-08-26T03:19:26.284Z,99102.28
2022-08-26T03:19:59.897Z,99100.90
2022-08-26T03:20:34.619Z,99101.66
2022-08-26T03:21:15.771Z,99104.73
2022-08-26T03:21:57.821Z,99104.63
2022-08-26T03:22:31.887Z,99100.94
2022-08-26T03:23:05.044Z,99101.55
2022-08-26T03:23:40.175Z,99100.77
2022-08-26T03:24:13.676Z,99104.45
2022-08-26T03:24:46.787Z,99105.00
2022-08-26T03:25:21.104Z,99101.66
2022-08-26T03:25:55.085Z,99104.38
2022-08-26T03:26:30.070Z,99101.34
2022-08-26T03:27:05.891Z,99102.83
2022-08-26T03:27:41.165Z,99100.44
2022-08-26T03:28:16.287Z,99097.81
2022-08-26T03:29:10.993Z,99102.04
2022-08-26T03:30:02.858Z,99101.24
2022-08-26T03:30:45.083Z,99100.84
2022-08-26T03:31:18.689Z,99099.38
2022-08-26T03:31:57.538Z,99096.48
2022-08-26T03:32:31.606Z,99096.14
2022-08-26T03:33:05.416Z,99094.40
2022-08-26T03:33:39.087Z,99092.93
2022-08-26T03:34:12.133Z,99092.56
2022-08-26T03:34:45.178Z,99092.53
2022-08-26T03:35:20.202Z,99095.70
2022-08-26T03:35:55.912Z,99091.31
2022-08-26T03:36:30.466Z,99092.20
2022-08-26T03:37:03.641Z,99089.36
2022-08-26T03:37:38.258Z,99091.48
2022-08-26T03:38:11.938Z,99091.12
2022-08-26T03:38:45.061Z,99091.77
2022-08-26T03:39:18.934Z,99094.45
2022-08-26T03:39:52.083Z,99095.22
2022-08-26T03:40:25.569Z,99094.48
2022-08-26T03:41:02.441Z,99096.12
2022-08-26T03:41:37.007Z,99094.36
2022-08-26T03:42:11.499Z,99097.42
2022-08-26T03:42:45.487Z,99097.21
2022-08-26T03:43:19.060Z,99094.27
2022-08-26T03:43:52.127Z,99094.17
2022-08-26T03:44:25.282Z,99094.02
2022-08-26T03:44:58.331Z,99091.38
2022-08-26T03:45:31.779Z,99092.19
2022-08-26T03:46:10.625Z,99096.63
2022-08-26T03:46:44.066Z,99094.66
2022-08-26T03:47:18.442Z,99098.33
2022-08-26T03:47:51.980Z,99095.67
2022-08-26T03:48:26.853Z,99094.61
2022-08-26T03:49:01.738Z,99096.27
2022-08-26T03:49:36.200Z,99094.45
2022-08-26T03:50:12.112Z,99096.50
2022-08-26T03:50:45.895Z,99097.36
2022-08-26T03:51:21.912Z,99092.92
2022-08-26T03:51:57.435Z,99091.00
2022-08-26T03:52:31.546Z,99090.40
2022-08-26T03:53:04.801Z,99095.36
2022-08-26T03:53:41.463Z,99094.06
2022-08-26T03:54:14.593Z,99094.95
2022-08-26T03:54:47.815Z,99092.74
2022-08-26T03:55:24.576Z,99094.45
2022-08-26T03:55:57.903Z,99093.73
2022-08-26T03:56:33.804Z,99093.52
2022-08-26T03:57:09.304Z,99093.11
2022-08-26T03:57:43.087Z,99093.96
2022-08-26T03:58:17.396Z,99095.25
2022-08-26T03:58:50.654Z,99096.72
2022-08-26T03:59:24.041Z,99093.23
2022-08-26T03:59:57.955Z,99093.27
2022-08-26T04:00:32.795Z,99095.98
2022-08-26T04:01:07.985Z,99093.66
2022-08-26T04:01:42.006Z,99094.90
2022-08-26T04:02:15.697Z,99094.40
2022-08-26T04:02:53.187Z,99091.88
2022-08-26T04:03:46.775Z,99095.38
2022-08-26T04:04:22.876Z,99096.84
2022-08-26T04:04:57.696Z,99095.01
2022-08-26T04:05:30.727Z,99093.73
2022-08-26T04:06:04.390Z,99096.63
2022-08-26T04:06:44.550Z,99095.55
2022-08-26T04:07:18.468Z,99093.29
2022-08-26T04:07:52.219Z,99096.05
2022-08-26T04:08:25.454Z,99096.86
2022-08-26T04:09:08.374Z,99096.09
2022-08-26T04:09:41.516Z,99093.59
2022-08-26T04:10:20.378Z,99093.27
2022-08-26T04:10:53.817Z,99094.30
2022-08-26T04:11:34.302Z,99095.55
2022-08-26T04:12:09.995Z,99091.52
2022-08-26T04:12:43.749Z,99090.19
2022-08-26T04:13:16.822Z,99095.63
2022-08-26T04:13:50.123Z,99094.79
2022-08-26T04:14:25.455Z,99096.23
2022-08-26T04:14:58.643Z,99095.96
2022-08-26T04:15:32.767Z,99096.29
2022-08-26T04:16:07.281Z,99095.83
2022-08-26T04:16:42.441Z,99097.29
2022-08-26T04:17:16.395Z,99093.73
2022-08-26T04:17:49.997Z,99095.96
2022-08-26T04:18:23.392Z,99096.02
2022-08-26T04:18:57.865Z,99095.48
2022-08-26T04:19:32.902Z,99095.20
2022-08-26T04:20:07.450Z,99095.46
2022-08-26T04:20:40.685Z,99095.04
2022-08-26T04:21:15.360Z,99093.02
2022-08-26T04:21:53.199Z,99100.17
2022-08-26T04:22:26.753Z,99094.90
2022-08-26T04:23:02.615Z,99096.97
2022-08-26T04:23:46.926Z,99096.02
2022-08-26T04:24:23.493Z,99093.95
2022-08-26T04:24:57.134Z,99095.52
2022-08-26T04:25:30.389Z,99096.73
2022-08-26T04:26:04.040Z,99095.91
2022-08-26T04:26:42.724Z,99096.73
2022-08-26T04:27:16.813Z,99095.28
2022-08-26T04:27:50.180Z,99095.00
2022-08-26T04:28:23.843Z,99096.02
2022-08-26T04:28:57.746Z,99097.03
2022-08-26T04:29:33.099Z,99092.58
2022-08-26T04:30:07.903Z,99094.36
2022-08-26T04:30:42.697Z,99092.89
2022-08-26T04:31:18.905Z,99090.60
2022-08-26T04:31:55.461Z,99091.19
2022-08-26T04:32:28.998Z,99093.02
2022-08-26T04:33:12.982Z,99091.14
2022-08-26T04:33:50.203Z,99093.31
2022-08-26T04:34:25.153Z,99091.80
2022-08-26T04:35:02.262Z,99095.78
2022-08-26T04:35:37.793Z,99093.64
2022-08-26T04:36:11.554Z,99097.88
2022-08-26T04:36:45.318Z,99093.72
2022-08-26T04:37:18.546Z,99091.37
2022-08-26T04:37:52.019Z,99094.01
2022-08-26T04:38:25.334Z,99092.02
2022-08-26T04:39:02.656Z,99094.77
2022-08-26T04:39:35.949Z,99092.30
2022-08-26T04:40:10.355Z,99093.84
2022-08-26T04:40:46.824Z,99088.48
2022-08-26T04:41:21.215Z,99087.88
2022-08-26T04:41:55.467Z,99088.00
2022-08-26T04:42:29.742Z,99088.34
2022-08-26T04:43:03.185Z,99090.14
2022-08-26T04:43:37.809Z,99093.58
2022-08-26T04:44:11.788Z,99089.80
2022-08-26T04:44:46.392Z,99090.15
2022-08-26T04:45:22.832Z,99094.10
2022-08-26T04:46:02.377Z,99088.20
2022-08-26T04:46:36.771Z,99095.84
2022-08-26T04:47:16.966Z,99097.15
2022-08-26T04:47:55.023Z,99097.51
2022-08-26T04:48:33.086Z,99093.64
2022-08-26T04:49:08.769Z,99093.23
2022-08-26T04:49:42.415Z,99093.94
2022-08-26T04:50:15.626Z,99095.42
2022-08-26T04:50:51.887Z,99090.80
2022-08-26T04:51:28.323Z,99092.07
2022-08-26T04:52:01.653Z,99094.23
2022-08-26T04:52:36.956Z,99093.08
2022-08-26T04:53:10.956Z,99093.80
2022-08-26T04:53:45.463Z,99093.05
2022-08-26T04:54:18.875Z,99094.98
2022-08-26T04:54:52.640Z,99097.59
2022-08-26T04:55:39.735Z,99092.89
2022-08-26T04:56:16.904Z,99095.42
2022-08-26T04:56:50.958Z,99094.04
2022-08-26T04:57:24.105Z,99094.14
2022-08-26T04:57:57.794Z,99094.34
2022-08-26T04:58:31.408Z,99095.05
2022-08-26T04:59:17.042Z,99093.05
2022-08-26T04:59:51.376Z,99093.55
2022-08-26T05:00:24.590Z,99096.05
2022-08-26T05:00:59.583Z,99092.90
2022-08-26T05:01:32.937Z,99096.05
2022-08-26T05:02:12.788Z,99091.49
2022-08-26T05:02:46.411Z,99092.48
2022-08-26T05:03:20.221Z,99093.50
2022-08-26T05:03:53.448Z,99091.53
2022-08-26T05:04:27.406Z,99091.46
2022-08-26T05:05:00.633Z,99092.75
2022-08-26T05:05:33.811Z,99091.57
2022-08-26T05:06:08.435Z,99091.27
2022-08-26T05:06:42.756Z,99094.23
2022-08-26T05:07:17.601Z,99095.17
2022-08-26T05:07:50.949Z,99093.99
2022-08-26T05:08:24.495Z,99096.63
2022-08-26T05:08:58.113Z,99093.64
2022-08-26T05:09:31.674Z,99092.78
2022-08-26T05:10:08.665Z,99092.45
2022-08-26T05:10:44.906Z,99095.60
2022-08-26T05:11:18.345Z,99091.21
2022-08-26T05:11:52.405Z,99096.99
2022-08-26T05:12:25.743Z,99093.50
2022-08-26T05:13:00.556Z,99093.46
2022-08-26T05:13:35.609Z,99096.86
2022-08-26T05:14:08.817Z,99091.62
2022-08-26T05:14:41.931Z,99093.14
2022-08-26T05:15:16.982Z,99092.00
2022-08-26T05:15:51.528Z,99092.44
2022-08-26T05:16:25.646Z,99093.44
2022-08-26T05:16:59.082Z,99089.14
2022-08-26T05:17:33.639Z,99088.86
2022-08-26T05:18:08.114Z,99091.66
2022-08-26T05:18:43.951Z,99090.12
2022-08-26T05:19:19.394Z,99088.74
2022-08-26T05:19:53.515Z,99092.28
2022-08-26T05:20:26.658Z,99091.69
2022-08-26T05:21:01.431Z,99091.31
2022-08-26T05:21:34.646Z,99089.97
2022-08-26T05:22:07.833Z,99094.71
2022-08-26T05:22:40.935Z,99092.45
2022-08-26T05:23:15.475Z,99091.49
2022-08-26T05:23:51.571Z,99094.98
2022-08-26T05:24:24.722Z,99090.44
2022-08-26T05:24:57.791Z,99088.56
2022-08-26T05:25:30.963Z,99091.57
2022-08-26T05:26:08.560Z,99092.20
2022-08-26T05:26:44.588Z,99087.13
2022-08-26T05:27:18.005Z,99089.09
2022-08-26T05:27:52.410Z,99089.55
2022-08-26T05:28:27.159Z,99088.33
2022-08-26T05:29:00.993Z,99089.13
2022-08-26T05:29:34.647Z,99091.45
2022-08-26T05:30:09.779Z,99089.70
2022-08-26T05:30:43.228Z,99092.41
2022-08-26T05:31:27.299Z,99090.32
2022-08-26T05:32:01.821Z,99095.55
2022-08-26T05:32:35.665Z,99092.44
2022-08-26T05:33:09.771Z,99095.08
2022-08-26T05:33:44.166Z,99092.55
2022-08-26T05:34:17.542Z,99095.77
2022-08-26T05:34:55.715Z,99093.51
2022-08-26T05:35:34.433Z,99093.09
2022-08-26T05:36:10.591Z,99091.90
2022-08-26T05:36:44.615Z,99092.53
2022-08-26T05:37:17.716Z,99095.21
2022-08-26T05:37:50.840Z,99094.40
2022-08-26T05:38:25.655Z,99091.17
2022-08-26T05:39:06.191Z,99091.27
2022-08-26T05:39:39.207Z,99091.91
2022-08-26T05:40:16.874Z,99094.31
2022-08-26T05:40:53.221Z,99092.12
2022-08-26T05:41:34.391Z,99090.21
2022-08-26T05:42:09.562Z,99093.52
2022-08-26T05:42:43.060Z,99092.97
2022-08-26T05:43:17.545Z,99092.65
2022-08-26T05:43:53.864Z,99094.41
2022-08-26T05:44:27.025Z,99092.58
2022-08-26T05:45:00.263Z,99094.17
2022-08-26T05:45:33.986Z,99093.73
2022-08-26T05:46:07.951Z,99093.98
2022-08-26T05:46:42.466Z,99092.63
2022-08-26T05:47:17.499Z,99089.46
2022-08-26T05:47:52.783Z,99091.80
2022-08-26T05:48:25.940Z,99091.92
2022-08-26T05:48:59.878Z,99091.72
2022-08-26T05:49:33.335Z,99094.42
2022-08-26T05:50:07.300Z,99095.49
2022-08-26T05:50:46.378Z,99092.92
2022-08-26T05:51:22.824Z,99090.55
2022-08-26T05:51:58.868Z,99092.89
2022-08-26T05:52:33.697Z,99091.74
2022-08-26T05:53:09.586Z,99087.88
2022-08-26T05:53:43.912Z,99090.42
2022-08-26T05:54:28.224Z,99083.50
2022-08-26T05:55:01.740Z,99083.98
2022-08-26T05:55:35.396Z,99083.51
2022-08-26T05:56:11.178Z,99084.82
2022-08-26T05:56:44.421Z,99086.46
2022-08-26T05:57:19.448Z,99086.80
2022-08-26T05:57:56.370Z,99088.65
2022-08-26T05:58:30.666Z,99088.31
2022-08-26T05:59:04.473Z,99085.98
2022-08-26T05:59:39.553Z,99085.44
2022-08-26T06:00:15.687Z,99087.42
2022-08-26T06:00:59.577Z,99089.13
2022-08-26T06:01:35.710Z,99087.42
2022-08-26T06:02:09.208Z,99085.80
2022-08-26T06:02:42.496Z,99087.48
2022-08-26T06:03:15.896Z,99087.81
2022-08-26T06:03:52.022Z,99089.56
2022-08-26T06:04:26.787Z,99091.11
2022-08-26T06:05:02.456Z,99088.96
2022-08-26T06:05:40.924Z,99090.84
2022-08-26T06:06:20.031Z,99091.25
2022-08-26T06:06:54.005Z,99093.14
2022-08-26T06:07:47.298Z,99094.05
2022-08-26T06:08:21.497Z,99092.38
2022-08-26T06:08:54.817Z,99090.52
2022-08-26T06:09:28.008Z,99092.55
2022-08-26T06:10:28.127Z,99091.73
2022-08-26T06:11:00.159Z,99092.33
2022-08-26T06:11:34.121Z,99092.24
2022-08-26T06:12:07.794Z,99087.29
2022-08-26T06:12:41.658Z,99089.69
2022-08-26T06:13:19.389Z,99087.73
2022-08-26T06:13:55.419Z,99088.37
2022-08-26T06:14:30.909Z,99087.20
2022-08-26T06:15:08.143Z,99086.96
2022-08-26T06:15:47.132Z,99090.20
2022-08-26T06:16:23.660Z,99087.08
2022-08-26T06:16:57.484Z,99085.64
2022-08-26T06:17:31.689Z,99084.20
2022-08-26T06:18:06.601Z,99088.01
2022-08-26T06:18:42.529Z,99086.20
2022-08-26T06:19:15.988Z,99082.45
2022-08-26T06:19:49.171Z,99086.86
2022-08-26T06:20:22.598Z,99081.41
2022-08-26T06:20:57.843Z,99082.18
2022-08-26T06:21:35.257Z,99084.95
2022-08-26T06:22:28.393Z,99086.67
2022-08-26T06:23:20.325Z,99083.70
2022-08-26T06:24:15.536Z,99083.76
2022-08-26T06:25:07.479Z,99080.45
2022-08-26T06:25:43.846Z,99082.08
2022-08-26T06:26:17.227Z,99077.70
2022-08-26T06:26:54.479Z,99085.80
2022-08-26T06:27:32.845Z,99081.33
2022-08-26T06:28:08.021Z,99082.14
2022-08-26T06:28:43.571Z,99084.04
2022-08-26T06:29:24.587Z,99085.71
2022-08-26T06:29:58.079Z,99082.09
2022-08-26T06:30:32.768Z,99082.16
2022-08-26T06:31:06.368Z,99082.34
2022-08-26T06:31:39.998Z,99083.54
2022-08-26T06:32:13.493Z,99083.23
2022-08-26T06:32:46.781Z,99079.91
2022-08-26T06:33:21.649Z,99082.66
2022-08-26T06:33:55.388Z,99081.27
2022-08-26T06:34:29.787Z,99082.27
2022-08-26T06:35:03.934Z,99084.70
2022-08-26T06:35:42.026Z,99084.60
2022-08-26T06:36:20.745Z,99088.04
2022-08-26T06:36:55.617Z,99082.02
2022-08-26T06:37:28.844Z,99085.19
2022-08-26T06:38:02.663Z,99083.59
2022-08-26T06:38:37.562Z,99086.40
2022-08-26T06:39:13.380Z,99084.60
2022-08-26T06:39:47.256Z,99085.23
2022-08-26T06:40:24.966Z,99088.80
2022-08-26T06:40:59.777Z,99091.16
2022-08-26T06:41:35.047Z,99087.59
2022-08-26T06:42:11.902Z,99086.74
2022-08-26T06:42:45.389Z,99091.61
2022-08-26T06:43:22.292Z,99091.68
2022-08-26T06:43:57.155Z,99091.01
2022-08-26T06:44:30.598Z,99090.09
2022-08-26T06:45:06.320Z,99092.46
2022-08-26T06:45:40.606Z,99091.60
2022-08-26T06:46:17.453Z,99091.13
2022-08-26T06:46:51.386Z,99088.20
2022-08-26T06:47:24.959Z,99085.09
2022-08-26T06:47:58.845Z,99084.19
2022-08-26T06:48:32.341Z,99088.00
2022-08-26T06:49:05.877Z,99086.98
2022-08-26T06:49:39.771Z,99087.84
2022-08-26T06:50:13.023Z,99090.74
2022-08-26T06:50:47.497Z,99086.99
2022-08-26T06:51:26.798Z,99090.35
2022-08-26T06:52:00.256Z,99089.82
2022-08-26T06:52:33.414Z,99092.88
2022-08-26T06:53:09.232Z,99091.76
2022-08-26T06:53:45.886Z,99094.91
2022-08-26T06:54:19.025Z,99096.42
2022-08-26T06:54:52.050Z,99096.70
2022-08-26T06:55:27.053Z,99095.52
2022-08-26T06:56:05.109Z,99094.46
2022-08-26T06:56:42.195Z,99093.75
2022-08-26T06:57:16.712Z,99097.34
2022-08-26T06:57:50.876Z,99096.77
2022-08-26T06:58:27.343Z,99097.04
2022-08-26T06:59:00.687Z,99099.06
2022-08-26T06:59:33.943Z,99096.50
2022-08-26T07:00:10.783Z,99093.35
2022-08-26T07:00:47.390Z,99095.02
2022-08-26T07:01:28.641Z,99093.77
2022-08-26T07:02:02.612Z,99095.80
2022-08-26T07:02:35.893Z,99098.58
2022-08-26T07:03:09.908Z,99096.02
2022-08-26T07:03:43.453Z,99098.34